La Belle Poule — FBPU — position and weather

sailwx.info

Track history (hours):
 
Tides and Currents Weather Stations Pressure Air Temp Water Temp Dewpoint Dewpoint Depression Visibility Wind Speed Wind Dir Waves Ship Positions

La Belle Poule (France)

Ship's website: http://www.defense.gouv.fr/english/portail-defense

Last reported at 2018-Jun-21 20:18 UTC. Time now 2018-Jun-22 08:57 UTC.
Position N 45°33' W 001°03'.

Length 37 m; draft 3.6 m.

Type: Sailing vessel. MMSI: 228796000.

Date/timePositionNaut miles runAvg speedWind from/ knotsBaromVisibWave heightAir tempDewpointWater temp
2018-Jun-21 20:18N 45°33' W 001°03'0 0.0
2018-Jun-21 19:53N 45°33' W 001°03'0 0.0
2018-Jun-21 19:24N 45°33' W 001°03'0 0.0
2018-Jun-21 18:57N 45°33' W 001°03'0 0.0
2018-Jun-21 18:25N 45°33' W 001°03'0 0.0
2018-Jun-21 17:53N 45°33' W 001°03'0 0.7
2018-Jun-21 17:30N 45°34' W 001°03'2 3.3
2018-Jun-21 17:00N 45°35' W 001°03'2 2.9
2018-Jun-21 16:28N 45°36' W 001°05'22 1.3
2018-Jun-20 23:08N 45°58' W 001°13'0 0.0
2018-Jun-20 22:57N 45°58' W 001°13'11 0.9
2018-Jun-20 11:37N 46°04' W 001°25'31 1.2
2018-Jun-19 08:47N 45°37' W 001°05'2 6.3
2018-Jun-19 08:30N 45°35' W 001°03'2 0.1
2018-Jun-18 17:21N 45°33' W 001°03'0 0.1
2018-Jun-18 16:59N 45°33' W 001°03'0 0.0
2018-Jun-18 16:30N 45°33' W 001°03'0 0.0
2018-Jun-18 15:55N 45°33' W 001°03'0 0.0
2018-Jun-18 15:25N 45°33' W 001°03'0 0.0
2018-Jun-18 14:58N 45°33' W 001°03'1 2.3
2018-Jun-18 14:28N 45°33' W 001°02'  
2018-Jun-12 11:59N 45°32' W 001°00'3 0.5
2018-Jun-12 07:24N 45°33' W 001°03'0 0.0
2018-Jun-12 06:58N 45°33' W 001°03'0 0.0
2018-Jun-12 06:27N 45°33' W 001°03'0 0.0
2018-Jun-12 05:49N 45°33' W 001°03'0 0.0
2018-Jun-12 05:27N 45°33' W 001°03'0 0.0
2018-Jun-12 04:50N 45°33' W 001°03'0 0.0
2018-Jun-12 04:30N 45°33' W 001°03'0 0.0
2018-Jun-12 04:00N 45°33' W 001°03'0 0.0
2018-Jun-12 03:26N 45°33' W 001°03'0 0.0
2018-Jun-12 02:54N 45°33' W 001°03'0 0.0
2018-Jun-12 02:29N 45°33' W 001°03'0 0.0
2018-Jun-12 01:21N 45°33' W 001°03'0 0.0
2018-Jun-12 00:48N 45°33' W 001°03'0 0.0
2018-Jun-12 00:29N 45°33' W 001°03'0 0.0
2018-Jun-11 23:59N 45°33' W 001°03'0 0.1
2018-Jun-11 23:26N 45°33' W 001°03'0 0.0
2018-Jun-11 22:58N 45°33' W 001°03'0 0.0
2018-Jun-11 22:28N 45°33' W 001°03'0 0.0
2018-Jun-11 21:59N 45°33' W 001°03'1 2.3
2018-Jun-11 21:30N 45°34' W 001°03'  
Track history (hours):
 
Tides and Currents Weather Stations Pressure Air Temp Water Temp Dewpoint Dewpoint Depression Visibility Wind Speed Wind Dir Waves Ship Positions

La Belle Poule (France)

Ship's website: http://www.defense.gouv.fr/english/portail-defense

Last reported at 2018-Jun-21 20:18 UTC. Time now 2018-Jun-22 08:57 UTC.
Position N 45°33' W 001°03'.

Length 37 m; draft 3.6 m.

Type: Sailing vessel. MMSI: 228796000.

Date/timePositionNaut miles runAvg speedWind from/ knotsBaromVisibWave heightAir tempDewpointWater temp
2018-Jun-21 20:18N 45°33' W 001°03'0 0.0
2018-Jun-21 19:53N 45°33' W 001°03'0 0.0
2018-Jun-21 19:24N 45°33' W 001°03'0 0.0
2018-Jun-21 18:57N 45°33' W 001°03'0 0.0
2018-Jun-21 18:25N 45°33' W 001°03'0 0.0
2018-Jun-21 17:53N 45°33' W 001°03'0 0.7
2018-Jun-21 17:30N 45°34' W 001°03'2 3.3
2018-Jun-21 17:00N 45°35' W 001°03'2 2.9
2018-Jun-21 16:28N 45°36' W 001°05'22 1.3
2018-Jun-20 23:08N 45°58' W 001°13'0 0.0
2018-Jun-20 22:57N 45°58' W 001°13'11 0.9
2018-Jun-20 11:37N 46°04' W 001°25'31 1.2
2018-Jun-19 08:47N 45°37' W 001°05'2 6.3
2018-Jun-19 08:30N 45°35' W 001°03'2 0.1
2018-Jun-18 17:21N 45°33' W 001°03'0 0.1
2018-Jun-18 16:59N 45°33' W 001°03'0 0.0
2018-Jun-18 16:30N 45°33' W 001°03'0 0.0
2018-Jun-18 15:55N 45°33' W 001°03'0 0.0
2018-Jun-18 15:25N 45°33' W 001°03'0 0.0
2018-Jun-18 14:58N 45°33' W 001°03'1 2.3
2018-Jun-18 14:28N 45°33' W 001°02'  
2018-Jun-12 11:59N 45°32' W 001°00'3 0.5
2018-Jun-12 07:24N 45°33' W 001°03'0 0.0
2018-Jun-12 06:58N 45°33' W 001°03'0 0.0
2018-Jun-12 06:27N 45°33' W 001°03'0 0.0
2018-Jun-12 05:49N 45°33' W 001°03'0 0.0
2018-Jun-12 05:27N 45°33' W 001°03'0 0.0
2018-Jun-12 04:50N 45°33' W 001°03'0 0.0
2018-Jun-12 04:30N 45°33' W 001°03'0 0.0
2018-Jun-12 04:00N 45°33' W 001°03'0 0.0
2018-Jun-12 03:26N 45°33' W 001°03'0 0.0
2018-Jun-12 02:54N 45°33' W 001°03'0 0.0
2018-Jun-12 02:29N 45°33' W 001°03'0 0.0
2018-Jun-12 01:21N 45°33' W 001°03'0 0.0
2018-Jun-12 00:48N 45°33' W 001°03'0 0.0
2018-Jun-12 00:29N 45°33' W 001°03'0 0.0
2018-Jun-11 23:59N 45°33' W 001°03'0 0.1
2018-Jun-11 23:26N 45°33' W 001°03'0 0.0
2018-Jun-11 22:58N 45°33' W 001°03'0 0.0
2018-Jun-11 22:28N 45°33' W 001°03'0 0.0
2018-Jun-11 21:59N 45°33' W 001°03'1 2.3
2018-Jun-11 21:30N 45°34' W 001°03'  

Dump ship's entire track history